Elkins-Randolph Co-Jennings Randolph Field Elkins US
ICAO: KEKN
IATA: EKN
Category: Medium
Scheduled Services: No

Elevation: 1987 ft
TransAlt. 18000 ft.

Airport Communications:
CLARKSBURG APP/DEP:121.15
ASOS:119.275
CTAF:123.6
RDO:122.2

KEKN Zoom In..

If you have problems with the map follow the link
https://www.worldairports.se/pages/airport.php?
ICAO=KEKN

Runways:

(A) RW 05 length 4501 ft width 140 ft
---- / hdg 46

(B) RW 14 length 4544 ft width 140 ft
---- / hdg 136

(C) RW 23 length 4501 ft width 140 ft
---- / hdg 226

(D) RW 32 length 4544 ft width 140 ft
---- / hdg 316

Location; KEKN
Day. 18 / Time. 07.51 Zulu
* Altimeter: 30.37
* Temperature: 03° c. 37.4°f.
* Wind from: 350° Speed 04 kn.
Dewpoint: -03° c.
Visibility: 10 Statute Miles.
Clouds: Clear (automated report).

KEKN 180751Z AUTO 35004KT 10SM CLR 03/M03 A3037 RMK AO2 SLP296 T00281028 TSNO


Wind From 350°
Speed 04 kn.

 
 
jpsmedia.com for Web Design worldairports.se 2018   terms of use